sensor_id;sensor_type;location;lat;lon;timestamp;P1;durP1;ratioP1;P2;durP2;ratioP2
63688;SDS011;54895;40.928;14.480;2023-03-15T00:02:04;41.60;;;6.68;;
63688;SDS011;54895;40.928;14.480;2023-03-15T00:04:31;45.35;;;7.38;;
63688;SDS011;54895;40.928;14.480;2023-03-15T00:06:57;37.85;;;6.20;;
63688;SDS011;54895;40.928;14.480;2023-03-15T00:09:24;33.95;;;6.05;;
63688;SDS011;54895;40.928;14.480;2023-03-15T00:11:51;34.65;;;7.75;;
63688;SDS011;54895;40.928;14.480;2023-03-15T00:14:19;31.38;;;5.93;;
63688;SDS011;54895;40.928;14.480;2023-03-15T00:16:46;36.70;;;7.38;;
63688;SDS011;54895;40.928;14.480;2023-03-15T00:19:13;27.77;;;5.88;;
63688;SDS011;54895;40.928;14.480;2023-03-15T00:21:39;34.20;;;5.97;;
63688;SDS011;54895;40.928;14.480;2023-03-15T00:24:09;33.33;;;6.80;;
63688;SDS011;54895;40.928;14.480;2023-03-15T00:26:36;32.22;;;5.72;;
63688;SDS011;54895;40.928;14.480;2023-03-15T00:29:03;30.92;;;6.63;;
63688;SDS011;54895;40.928;14.480;2023-03-15T00:31:30;36.53;;;6.25;;
63688;SDS011;54895;40.928;14.480;2023-03-15T00:33:56;37.60;;;6.65;;
63688;SDS011;54895;40.928;14.480;2023-03-15T00:36:23;35.55;;;6.20;;
63688;SDS011;54895;40.928;14.480;2023-03-15T00:38:51;32.03;;;5.78;;
63688;SDS011;54895;40.928;14.480;2023-03-15T00:41:19;41.47;;;6.60;;
63688;SDS011;54895;40.928;14.480;2023-03-15T00:43:46;34.03;;;6.15;;
63688;SDS011;54895;40.928;14.480;2023-03-15T00:49:32;34.83;;;6.00;;
63688;SDS011;54895;40.928;14.480;2023-03-15T00:52:01;29.27;;;6.05;;
63688;SDS011;54895;40.928;14.480;2023-03-15T00:54:27;42.72;;;6.75;;
63688;SDS011;54895;40.928;14.480;2023-03-15T00:56:54;33.40;;;7.15;;
63688;SDS011;54895;40.928;14.480;2023-03-15T00:59:21;40.80;;;8.18;;
63688;SDS011;54895;40.928;14.480;2023-03-15T01:01:48;33.38;;;6.70;;
63688;SDS011;54895;40.928;14.480;2023-03-15T01:04:16;33.05;;;7.32;;
63688;SDS011;54895;40.928;14.480;2023-03-15T01:06:42;39.65;;;6.93;;
63688;SDS011;54895;40.928;14.480;2023-03-15T01:09:09;34.47;;;6.53;;
63688;SDS011;54895;40.928;14.480;2023-03-15T01:11:37;41.05;;;7.03;;
63688;SDS011;54895;40.928;14.480;2023-03-15T01:14:04;37.67;;;6.13;;
63688;SDS011;54895;40.928;14.480;2023-03-15T01:16:33;34.25;;;6.15;;
63688;SDS011;54895;40.928;14.480;2023-03-15T01:19:03;36.70;;;5.60;;
63688;SDS011;54895;40.928;14.480;2023-03-15T01:21:30;35.20;;;6.10;;
63688;SDS011;54895;40.928;14.480;2023-03-15T01:23:56;37.47;;;6.15;;
63688;SDS011;54895;40.928;14.480;2023-03-15T01:26:24;36.35;;;6.07;;
63688;SDS011;54895;40.928;14.480;2023-03-15T01:28:50;30.38;;;5.93;;
63688;SDS011;54895;40.928;14.480;2023-03-15T01:31:20;35.80;;;5.93;;
63688;SDS011;54895;40.928;14.480;2023-03-15T01:33:49;38.38;;;6.93;;
63688;SDS011;54895;40.928;14.480;2023-03-15T01:36:17;28.80;;;5.88;;
63688;SDS011;54895;40.928;14.480;2023-03-15T01:38:44;29.48;;;6.50;;
63688;SDS011;54895;40.928;14.480;2023-03-15T01:41:11;41.85;;;7.40;;
63688;SDS011;54895;40.928;14.480;2023-03-15T01:43:40;37.38;;;6.78;;
63688;SDS011;54895;40.928;14.480;2023-03-15T01:49:55;32.28;;;6.15;;
63688;SDS011;54895;40.928;14.480;2023-03-15T01:52:28;31.55;;;5.88;;
63688;SDS011;54895;40.928;14.480;2023-03-15T01:55:06;31.90;;;5.35;;
63688;SDS011;54895;40.928;14.480;2023-03-15T01:57:59;32.40;;;5.97;;
63688;SDS011;54895;40.928;14.480;2023-03-15T02:00:28;32.28;;;5.32;;
63688;SDS011;54895;40.928;14.480;2023-03-15T02:03:13;33.78;;;6.00;;
63688;SDS011;54895;40.928;14.480;2023-03-15T02:05:47;38.33;;;5.90;;
63688;SDS011;54895;40.928;14.480;2023-03-15T02:08:29;39.78;;;6.50;;
63688;SDS011;54895;40.928;14.480;2023-03-15T02:13:48;35.97;;;5.32;;
63688;SDS011;54895;40.928;14.480;2023-03-15T02:16:15;30.88;;;6.00;;
63688;SDS011;54895;40.928;14.480;2023-03-15T02:26:41;26.23;;;5.10;;
63688;SDS011;54895;40.928;14.480;2023-03-15T02:29:11;38.20;;;6.45;;
63688;SDS011;54895;40.928;14.480;2023-03-15T02:31:38;38.15;;;7.00;;
63688;SDS011;54895;40.928;14.480;2023-03-15T02:34:05;30.98;;;5.25;;
63688;SDS011;54895;40.928;14.480;2023-03-15T02:36:33;39.55;;;6.15;;
63688;SDS011;54895;40.928;14.480;2023-03-15T02:39:00;25.48;;;5.50;;
63688;SDS011;54895;40.928;14.480;2023-03-15T02:44:07;35.67;;;5.55;;
63688;SDS011;54895;40.928;14.480;2023-03-15T02:49:49;34.25;;;5.38;;
63688;SDS011;54895;40.928;14.480;2023-03-15T02:52:19;26.52;;;4.68;;
63688;SDS011;54895;40.928;14.480;2023-03-15T02:54:46;27.88;;;5.25;;
63688;SDS011;54895;40.928;14.480;2023-03-15T02:57:13;44.08;;;7.00;;
63688;SDS011;54895;40.928;14.480;2023-03-15T02:59:42;24.65;;;4.80;;
63688;SDS011;54895;40.928;14.480;2023-03-15T03:02:10;32.50;;;5.78;;
63688;SDS011;54895;40.928;14.480;2023-03-15T03:04:37;32.58;;;5.47;;
63688;SDS011;54895;40.928;14.480;2023-03-15T03:07:04;37.42;;;6.38;;
63688;SDS011;54895;40.928;14.480;2023-03-15T03:09:38;46.83;;;5.97;;
63688;SDS011;54895;40.928;14.480;2023-03-15T03:12:05;32.85;;;5.53;;
63688;SDS011;54895;40.928;14.480;2023-03-15T03:14:33;29.30;;;5.45;;
63688;SDS011;54895;40.928;14.480;2023-03-15T03:17:00;32.67;;;5.15;;
63688;SDS011;54895;40.928;14.480;2023-03-15T03:19:27;28.05;;;5.65;;
63688;SDS011;54895;40.928;14.480;2023-03-15T03:21:55;27.52;;;5.55;;
63688;SDS011;54895;40.928;14.480;2023-03-15T03:24:22;34.22;;;5.22;;
63688;SDS011;54895;40.928;14.480;2023-03-15T03:26:52;34.63;;;5.68;;
63688;SDS011;54895;40.928;14.480;2023-03-15T03:29:25;33.30;;;5.80;;
63688;SDS011;54895;40.928;14.480;2023-03-15T03:31:53;28.45;;;5.40;;
63688;SDS011;54895;40.928;14.480;2023-03-15T03:34:21;30.98;;;5.10;;
63688;SDS011;54895;40.928;14.480;2023-03-15T03:36:47;32.88;;;5.93;;
63688;SDS011;54895;40.928;14.480;2023-03-15T03:39:19;25.85;;;5.20;;
63688;SDS011;54895;40.928;14.480;2023-03-15T03:41:45;29.17;;;6.57;;
63688;SDS011;54895;40.928;14.480;2023-03-15T03:44:12;33.65;;;6.05;;
63688;SDS011;54895;40.928;14.480;2023-03-15T03:50:24;28.85;;;5.70;;
63688;SDS011;54895;40.928;14.480;2023-03-15T03:52:51;30.98;;;5.68;;
63688;SDS011;54895;40.928;14.480;2023-03-15T03:55:29;33.88;;;5.60;;
63688;SDS011;54895;40.928;14.480;2023-03-15T03:57:59;33.60;;;5.53;;
63688;SDS011;54895;40.928;14.480;2023-03-15T04:00:55;35.97;;;5.90;;
63688;SDS011;54895;40.928;14.480;2023-03-15T04:03:24;29.88;;;5.55;;
63688;SDS011;54895;40.928;14.480;2023-03-15T04:06:02;29.20;;;6.00;;
63688;SDS011;54895;40.928;14.480;2023-03-15T04:08:32;32.17;;;5.25;;
63688;SDS011;54895;40.928;14.480;2023-03-15T04:10:59;26.23;;;5.60;;
63688;SDS011;54895;40.928;14.480;2023-03-15T04:13:30;30.90;;;5.63;;
63688;SDS011;54895;40.928;14.480;2023-03-15T04:15:59;27.30;;;5.75;;
63688;SDS011;54895;40.928;14.480;2023-03-15T04:18:31;32.97;;;5.70;;
63688;SDS011;54895;40.928;14.480;2023-03-15T04:20:58;30.80;;;6.50;;
63688;SDS011;54895;40.928;14.480;2023-03-15T04:23:24;30.55;;;5.93;;
63688;SDS011;54895;40.928;14.480;2023-03-15T04:26:14;22.95;;;5.43;;
63688;SDS011;54895;40.928;14.480;2023-03-15T04:29:09;34.38;;;6.00;;
63688;SDS011;54895;40.928;14.480;2023-03-15T04:31:55;28.15;;;5.20;;
63688;SDS011;54895;40.928;14.480;2023-03-15T04:34:46;33.15;;;5.90;;
63688;SDS011;54895;40.928;14.480;2023-03-15T04:37:29;27.63;;;5.82;;
63688;SDS011;54895;40.928;14.480;2023-03-15T04:40:08;35.65;;;6.00;;
63688;SDS011;54895;40.928;14.480;2023-03-15T04:42:42;32.72;;;6.15;;
63688;SDS011;54895;40.928;14.480;2023-03-15T04:45:34;34.03;;;5.82;;
63688;SDS011;54895;40.928;14.480;2023-03-15T04:48:24;37.30;;;5.55;;
63688;SDS011;54895;40.928;14.480;2023-03-15T04:51:19;30.58;;;6.10;;
63688;SDS011;54895;40.928;14.480;2023-03-15T04:53:59;33.28;;;6.82;;
63688;SDS011;54895;40.928;14.480;2023-03-15T04:56:54;29.13;;;6.93;;
63688;SDS011;54895;40.928;14.480;2023-03-15T04:59:40;30.52;;;6.22;;
63688;SDS011;54895;40.928;14.480;2023-03-15T05:02:44;37.90;;;7.05;;
63688;SDS011;54895;40.928;14.480;2023-03-15T05:05:36;38.05;;;10.50;;
63688;SDS011;54895;40.928;14.480;2023-03-15T05:08:22;25.45;;;5.65;;
63688;SDS011;54895;40.928;14.480;2023-03-15T05:11:08;28.15;;;6.70;;
63688;SDS011;54895;40.928;14.480;2023-03-15T05:13:51;31.65;;;6.95;;
63688;SDS011;54895;40.928;14.480;2023-03-15T05:16:37;31.55;;;6.20;;
63688;SDS011;54895;40.928;14.480;2023-03-15T05:19:38;32.58;;;6.15;;
63688;SDS011;54895;40.928;14.480;2023-03-15T05:22:34;28.60;;;6.07;;
63688;SDS011;54895;40.928;14.480;2023-03-15T05:25:23;31.92;;;6.18;;
63688;SDS011;54895;40.928;14.480;2023-03-15T05:27:53;33.95;;;5.60;;
63688;SDS011;54895;40.928;14.480;2023-03-15T05:30:46;29.27;;;6.32;;
63688;SDS011;54895;40.928;14.480;2023-03-15T05:33:23;26.13;;;5.80;;
63688;SDS011;54895;40.928;14.480;2023-03-15T05:36:08;31.50;;;5.43;;
63688;SDS011;54895;40.928;14.480;2023-03-15T05:38:40;31.00;;;6.43;;
63688;SDS011;54895;40.928;14.480;2023-03-15T05:41:27;31.65;;;6.63;;
63688;SDS011;54895;40.928;14.480;2023-03-15T05:44:14;25.95;;;5.40;;
63688;SDS011;54895;40.928;14.480;2023-03-15T05:50:09;32.95;;;6.25;;
63688;SDS011;54895;40.928;14.480;2023-03-15T05:52:55;29.85;;;6.95;;
63688;SDS011;54895;40.928;14.480;2023-03-15T05:55:32;28.83;;;6.07;;
63688;SDS011;54895;40.928;14.480;2023-03-15T05:58:13;28.00;;;5.75;;
63688;SDS011;54895;40.928;14.480;2023-03-15T06:01:12;31.30;;;5.50;;
63688;SDS011;54895;40.928;14.480;2023-03-15T06:03:58;30.45;;;6.00;;
63688;SDS011;54895;40.928;14.480;2023-03-15T06:09:14;28.73;;;6.20;;
63688;SDS011;54895;40.928;14.480;2023-03-15T06:11:45;29.52;;;6.13;;
63688;SDS011;54895;40.928;14.480;2023-03-15T06:14:12;31.30;;;6.35;;
63688;SDS011;54895;40.928;14.480;2023-03-15T06:16:45;31.45;;;6.25;;
63688;SDS011;54895;40.928;14.480;2023-03-15T06:19:12;23.88;;;4.68;;
63688;SDS011;54895;40.928;14.480;2023-03-15T06:21:39;40.63;;;7.07;;
63688;SDS011;54895;40.928;14.480;2023-03-15T06:24:11;32.47;;;6.05;;
63688;SDS011;54895;40.928;14.480;2023-03-15T06:26:38;33.40;;;6.30;;
63688;SDS011;54895;40.928;14.480;2023-03-15T06:29:05;32.95;;;6.72;;
63688;SDS011;54895;40.928;14.480;2023-03-15T06:31:32;32.45;;;5.97;;
63688;SDS011;54895;40.928;14.480;2023-03-15T06:34:02;33.33;;;6.63;;
63688;SDS011;54895;40.928;14.480;2023-03-15T06:36:29;31.60;;;6.97;;
63688;SDS011;54895;40.928;14.480;2023-03-15T06:38:56;28.05;;;5.60;;
63688;SDS011;54895;40.928;14.480;2023-03-15T06:41:23;25.13;;;6.05;;
63688;SDS011;54895;40.928;14.480;2023-03-15T06:43:55;31.90;;;5.60;;
63688;SDS011;54895;40.928;14.480;2023-03-15T06:50:01;36.22;;;6.07;;
63688;SDS011;54895;40.928;14.480;2023-03-15T06:52:28;31.25;;;5.57;;
63688;SDS011;54895;40.928;14.480;2023-03-15T06:54:55;34.88;;;5.63;;
63688;SDS011;54895;40.928;14.480;2023-03-15T06:57:21;32.60;;;6.07;;
63688;SDS011;54895;40.928;14.480;2023-03-15T06:59:48;36.03;;;6.25;;
63688;SDS011;54895;40.928;14.480;2023-03-15T07:02:15;31.77;;;6.20;;
63688;SDS011;54895;40.928;14.480;2023-03-15T07:04:43;32.42;;;5.53;;
63688;SDS011;54895;40.928;14.480;2023-03-15T07:07:13;27.50;;;5.70;;
63688;SDS011;54895;40.928;14.480;2023-03-15T07:09:40;22.88;;;5.45;;
63688;SDS011;54895;40.928;14.480;2023-03-15T07:12:06;28.45;;;5.78;;
63688;SDS011;54895;40.928;14.480;2023-03-15T07:14:34;26.20;;;5.28;;
63688;SDS011;54895;40.928;14.480;2023-03-15T07:17:01;33.15;;;5.82;;
63688;SDS011;54895;40.928;14.480;2023-03-15T07:19:27;20.20;;;4.85;;
63688;SDS011;54895;40.928;14.480;2023-03-15T07:21:54;29.10;;;5.20;;
63688;SDS011;54895;40.928;14.480;2023-03-15T07:24:21;25.83;;;5.60;;
63688;SDS011;54895;40.928;14.480;2023-03-15T07:26:47;26.35;;;5.95;;
63688;SDS011;54895;40.928;14.480;2023-03-15T07:29:14;22.80;;;3.97;;
63688;SDS011;54895;40.928;14.480;2023-03-15T07:31:40;33.22;;;5.38;;
63688;SDS011;54895;40.928;14.480;2023-03-15T07:34:07;23.58;;;5.68;;
63688;SDS011;54895;40.928;14.480;2023-03-15T07:36:33;17.30;;;3.92;;
63688;SDS011;54895;40.928;14.480;2023-03-15T07:38:59;25.58;;;5.03;;
63688;SDS011;54895;40.928;14.480;2023-03-15T07:41:26;29.98;;;4.72;;
63688;SDS011;54895;40.928;14.480;2023-03-15T07:44:04;23.13;;;5.05;;
63688;SDS011;54895;40.928;14.480;2023-03-15T07:50:04;18.80;;;4.75;;
63688;SDS011;54895;40.928;14.480;2023-03-15T07:52:31;24.08;;;4.50;;
63688;SDS011;54895;40.928;14.480;2023-03-15T07:54:58;20.05;;;5.00;;
63688;SDS011;54895;40.928;14.480;2023-03-15T07:57:25;26.42;;;4.60;;
63688;SDS011;54895;40.928;14.480;2023-03-15T07:59:51;23.27;;;4.90;;
63688;SDS011;54895;40.928;14.480;2023-03-15T08:02:18;23.58;;;4.47;;
63688;SDS011;54895;40.928;14.480;2023-03-15T08:04:44;18.67;;;3.97;;
63688;SDS011;54895;40.928;14.480;2023-03-15T08:07:11;18.92;;;4.25;;
63688;SDS011;54895;40.928;14.480;2023-03-15T08:09:38;22.05;;;5.20;;
63688;SDS011;54895;40.928;14.480;2023-03-15T08:12:04;22.75;;;6.00;;
63688;SDS011;54895;40.928;14.480;2023-03-15T08:14:31;25.45;;;6.50;;
63688;SDS011;54895;40.928;14.480;2023-03-15T08:16:58;19.40;;;5.15;;
63688;SDS011;54895;40.928;14.480;2023-03-15T08:19:24;19.35;;;5.45;;
63688;SDS011;54895;40.928;14.480;2023-03-15T08:21:52;17.77;;;4.68;;
63688;SDS011;54895;40.928;14.480;2023-03-15T08:24:19;26.10;;;4.82;;
63688;SDS011;54895;40.928;14.480;2023-03-15T08:26:47;18.08;;;4.70;;
63688;SDS011;54895;40.928;14.480;2023-03-15T08:29:13;18.70;;;4.20;;
63688;SDS011;54895;40.928;14.480;2023-03-15T08:31:40;24.42;;;4.20;;
63688;SDS011;54895;40.928;14.480;2023-03-15T08:34:07;13.50;;;3.58;;
63688;SDS011;54895;40.928;14.480;2023-03-15T08:36:34;9.63;;;2.60;;
63688;SDS011;54895;40.928;14.480;2023-03-15T08:39:00;10.20;;;2.28;;
63688;SDS011;54895;40.928;14.480;2023-03-15T08:41:27;7.90;;;2.10;;
63688;SDS011;54895;40.928;14.480;2023-03-15T08:43:54;12.80;;;2.40;;
63688;SDS011;54895;40.928;14.480;2023-03-15T08:50:06;13.10;;;2.72;;
63688;SDS011;54895;40.928;14.480;2023-03-15T08:52:36;13.15;;;3.70;;
63688;SDS011;54895;40.928;14.480;2023-03-15T08:55:02;14.45;;;3.33;;
63688;SDS011;54895;40.928;14.480;2023-03-15T08:57:30;13.73;;;2.72;;
63688;SDS011;54895;40.928;14.480;2023-03-15T08:59:58;14.93;;;3.45;;
63688;SDS011;54895;40.928;14.480;2023-03-15T09:02:27;12.60;;;3.05;;
63688;SDS011;54895;40.928;14.480;2023-03-15T09:04:54;16.00;;;3.17;;
63688;SDS011;54895;40.928;14.480;2023-03-15T09:07:20;18.02;;;3.10;;
63688;SDS011;54895;40.928;14.480;2023-03-15T09:09:47;13.50;;;3.63;;
63688;SDS011;54895;40.928;14.480;2023-03-15T09:12:14;15.27;;;3.25;;
63688;SDS011;54895;40.928;14.480;2023-03-15T09:14:42;18.25;;;3.83;;
63688;SDS011;54895;40.928;14.480;2023-03-15T09:17:09;12.75;;;3.60;;
63688;SDS011;54895;40.928;14.480;2023-03-15T09:19:36;12.73;;;3.38;;
63688;SDS011;54895;40.928;14.480;2023-03-15T09:22:03;12.65;;;2.63;;
63688;SDS011;54895;40.928;14.480;2023-03-15T09:24:31;16.55;;;2.90;;
63688;SDS011;54895;40.928;14.480;2023-03-15T09:26:57;6.63;;;2.33;;
63688;SDS011;54895;40.928;14.480;2023-03-15T09:29:24;8.10;;;2.33;;
63688;SDS011;54895;40.928;14.480;2023-03-15T09:31:50;8.13;;;2.40;;
63688;SDS011;54895;40.928;14.480;2023-03-15T09:34:17;9.13;;;2.58;;
63688;SDS011;54895;40.928;14.480;2023-03-15T09:36:46;9.88;;;2.53;;
63688;SDS011;54895;40.928;14.480;2023-03-15T09:39:18;13.27;;;2.45;;
63688;SDS011;54895;40.928;14.480;2023-03-15T09:41:46;15.13;;;2.80;;
63688;SDS011;54895;40.928;14.480;2023-03-15T09:44:42;10.25;;;2.30;;
63688;SDS011;54895;40.928;14.480;2023-03-15T09:50:40;10.82;;;2.17;;
63688;SDS011;54895;40.928;14.480;2023-03-15T09:53:11;10.35;;;2.78;;
63688;SDS011;54895;40.928;14.480;2023-03-15T09:55:44;7.43;;;2.13;;
63688;SDS011;54895;40.928;14.480;2023-03-15T09:58:20;16.48;;;3.47;;
63688;SDS011;54895;40.928;14.480;2023-03-15T10:00:52;14.75;;;3.30;;
63688;SDS011;54895;40.928;14.480;2023-03-15T10:03:28;8.45;;;2.45;;
63688;SDS011;54895;40.928;14.480;2023-03-15T10:09:08;8.85;;;2.17;;
63688;SDS011;54895;40.928;14.480;2023-03-15T10:20:23;9.55;;;2.45;;
63688;SDS011;54895;40.928;14.480;2023-03-15T10:23:01;8.32;;;2.47;;
63688;SDS011;54895;40.928;14.480;2023-03-15T10:25:35;9.80;;;2.45;;
63688;SDS011;54895;40.928;14.480;2023-03-15T10:30:34;8.20;;;2.10;;
63688;SDS011;54895;40.928;14.480;2023-03-15T10:35:44;8.25;;;2.30;;
63688;SDS011;54895;40.928;14.480;2023-03-15T10:38:18;8.98;;;2.45;;
63688;SDS011;54895;40.928;14.480;2023-03-15T10:40:47;6.88;;;2.17;;
63688;SDS011;54895;40.928;14.480;2023-03-15T10:43:16;5.90;;;1.83;;
63688;SDS011;54895;40.928;14.480;2023-03-15T10:46:03;7.32;;;2.15;;
63688;SDS011;54895;40.928;14.480;2023-03-15T10:48:57;8.75;;;2.13;;
63688;SDS011;54895;40.928;14.480;2023-03-15T10:51:39;8.10;;;1.83;;
63688;SDS011;54895;40.928;14.480;2023-03-15T10:54:16;6.45;;;1.83;;
63688;SDS011;54895;40.928;14.480;2023-03-15T10:59:19;5.57;;;1.67;;
63688;SDS011;54895;40.928;14.480;2023-03-15T11:01:50;8.05;;;1.73;;
63688;SDS011;54895;40.928;14.480;2023-03-15T11:04:22;7.70;;;1.80;;
63688;SDS011;54895;40.928;14.480;2023-03-15T11:09:22;5.63;;;1.63;;
63688;SDS011;54895;40.928;14.480;2023-03-15T11:12:00;5.82;;;1.75;;
63688;SDS011;54895;40.928;14.480;2023-03-15T11:14:35;4.57;;;1.50;;
63688;SDS011;54895;40.928;14.480;2023-03-15T11:17:05;3.50;;;1.17;;
63688;SDS011;54895;40.928;14.480;2023-03-15T11:19:36;8.68;;;2.00;;
63688;SDS011;54895;40.928;14.480;2023-03-15T11:24:35;6.22;;;1.55;;
63688;SDS011;54895;40.928;14.480;2023-03-15T11:27:03;4.05;;;1.20;;
63688;SDS011;54895;40.928;14.480;2023-03-15T11:29:36;4.10;;;1.35;;
63688;SDS011;54895;40.928;14.480;2023-03-15T11:32:12;4.53;;;1.10;;
63688;SDS011;54895;40.928;14.480;2023-03-15T11:35:03;4.55;;;1.20;;
63688;SDS011;54895;40.928;14.480;2023-03-15T11:40:04;4.80;;;0.90;;
63688;SDS011;54895;40.928;14.480;2023-03-15T11:45:26;7.88;;;1.50;;
63688;SDS011;54895;40.928;14.480;2023-03-15T11:51:01;4.85;;;1.20;;
63688;SDS011;54895;40.928;14.480;2023-03-15T11:53:29;7.38;;;2.22;;
63688;SDS011;54895;40.928;14.480;2023-03-15T11:58:58;4.78;;;1.60;;
63688;SDS011;54895;40.928;14.480;2023-03-15T12:01:36;5.35;;;1.70;;
63688;SDS011;54895;40.928;14.480;2023-03-15T12:06:52;5.82;;;0.95;;
63688;SDS011;54895;40.928;14.480;2023-03-15T12:15:01;1.83;;;1.10;;
63688;SDS011;54895;40.928;14.480;2023-03-15T12:22:47;2.60;;;0.98;;
63688;SDS011;54895;40.928;14.480;2023-03-15T12:28:21;1.65;;;0.60;;
63688;SDS011;54895;40.928;14.480;2023-03-15T12:30:58;0.50;;;0.50;;
63688;SDS011;54895;40.928;14.480;2023-03-15T12:33:28;1.95;;;0.75;;
63688;SDS011;54895;40.928;14.480;2023-03-15T12:36:03;2.08;;;0.70;;
63688;SDS011;54895;40.928;14.480;2023-03-15T12:38:36;2.17;;;0.38;;
63688;SDS011;54895;40.928;14.480;2023-03-15T12:41:07;0.73;;;0.60;;
63688;SDS011;54895;40.928;14.480;2023-03-15T12:44:16;1.05;;;0.73;;
63688;SDS011;54895;40.928;14.480;2023-03-15T12:53:15;1.15;;;0.52;;
63688;SDS011;54895;40.928;14.480;2023-03-15T12:55:46;1.00;;;0.52;;
63688;SDS011;54895;40.928;14.480;2023-03-15T12:58:15;0.30;;;0.25;;
63688;SDS011;54895;40.928;14.480;2023-03-15T13:00:42;0.30;;;0.30;;
63688;SDS011;54895;40.928;14.480;2023-03-15T13:03:13;1.95;;;0.50;;
63688;SDS011;54895;40.928;14.480;2023-03-15T13:11:29;0.60;;;0.40;;
63688;SDS011;54895;40.928;14.480;2023-03-15T13:17:30;0.52;;;0.50;;
63688;SDS011;54895;40.928;14.480;2023-03-15T13:23:09;2.05;;;0.50;;
63688;SDS011;54895;40.928;14.480;2023-03-15T13:31:22;0.40;;;0.20;;
63688;SDS011;54895;40.928;14.480;2023-03-15T13:33:52;0.57;;;0.38;;
63688;SDS011;54895;40.928;14.480;2023-03-15T13:36:24;0.20;;;0.20;;
63688;SDS011;54895;40.928;14.480;2023-03-15T13:38:54;1.27;;;0.60;;
63688;SDS011;54895;40.928;14.480;2023-03-15T13:41:23;1.63;;;0.80;;
63688;SDS011;54895;40.928;14.480;2023-03-15T13:43:57;1.25;;;0.50;;
63688;SDS011;54895;40.928;14.480;2023-03-15T13:50:47;0.30;;;0.20;;
63688;SDS011;54895;40.928;14.480;2023-03-15T13:53:17;0.97;;;0.50;;
63688;SDS011;54895;40.928;14.480;2023-03-15T13:55:50;2.65;;;0.50;;
63688;SDS011;54895;40.928;14.480;2023-03-15T13:58:20;1.67;;;0.40;;
63688;SDS011;54895;40.928;14.480;2023-03-15T14:00:54;1.42;;;0.32;;
63688;SDS011;54895;40.928;14.480;2023-03-15T14:03:25;0.40;;;0.30;;
63688;SDS011;54895;40.928;14.480;2023-03-15T14:05:53;0.30;;;0.20;;
63688;SDS011;54895;40.928;14.480;2023-03-15T14:08:29;0.52;;;0.32;;
63688;SDS011;54895;40.928;14.480;2023-03-15T14:11:05;0.45;;;0.30;;
63688;SDS011;54895;40.928;14.480;2023-03-15T14:13:51;0.30;;;0.20;;
63688;SDS011;54895;40.928;14.480;2023-03-15T14:16:32;1.75;;;0.90;;
63688;SDS011;54895;40.928;14.480;2023-03-15T14:21:42;3.22;;;0.77;;
63688;SDS011;54895;40.928;14.480;2023-03-15T14:27:08;2.90;;;1.15;;
63688;SDS011;54895;40.928;14.480;2023-03-15T14:29:42;0.82;;;0.50;;
63688;SDS011;54895;40.928;14.480;2023-03-15T14:35:18;8.30;;;0.85;;
63688;SDS011;54895;40.928;14.480;2023-03-15T14:38:14;0.55;;;0.30;;
63688;SDS011;54895;40.928;14.480;2023-03-15T14:40:44;0.43;;;0.40;;
63688;SDS011;54895;40.928;14.480;2023-03-15T14:43:11;3.10;;;0.52;;
63688;SDS011;54895;40.928;14.480;2023-03-15T14:45:39;1.73;;;0.60;;
63688;SDS011;54895;40.928;14.480;2023-03-15T14:51:02;0.40;;;0.40;;
63688;SDS011;54895;40.928;14.480;2023-03-15T14:53:33;0.93;;;0.40;;
63688;SDS011;54895;40.928;14.480;2023-03-15T14:56:02;0.57;;;0.40;;
63688;SDS011;54895;40.928;14.480;2023-03-15T14:58:29;0.80;;;0.38;;
63688;SDS011;54895;40.928;14.480;2023-03-15T15:00:55;0.73;;;0.30;;
63688;SDS011;54895;40.928;14.480;2023-03-15T15:03:35;0.70;;;0.50;;
63688;SDS011;54895;40.928;14.480;2023-03-15T15:06:12;0.38;;;0.38;;
63688;SDS011;54895;40.928;14.480;2023-03-15T15:08:42;0.70;;;0.50;;
63688;SDS011;54895;40.928;14.480;2023-03-15T15:11:10;1.23;;;0.50;;
63688;SDS011;54895;40.928;14.480;2023-03-15T15:13:37;0.45;;;0.38;;
63688;SDS011;54895;40.928;14.480;2023-03-15T15:16:04;0.40;;;0.38;;
63688;SDS011;54895;40.928;14.480;2023-03-15T15:18:32;0.93;;;0.40;;
63688;SDS011;54895;40.928;14.480;2023-03-15T15:21:01;0.47;;;0.43;;
63688;SDS011;54895;40.928;14.480;2023-03-15T15:23:33;0.60;;;0.35;;
63688;SDS011;54895;40.928;14.480;2023-03-15T15:26:02;0.43;;;0.30;;
63688;SDS011;54895;40.928;14.480;2023-03-15T15:28:31;0.95;;;0.40;;
63688;SDS011;54895;40.928;14.480;2023-03-15T15:30:59;0.40;;;0.30;;
63688;SDS011;54895;40.928;14.480;2023-03-15T15:33:25;0.85;;;0.40;;
63688;SDS011;54895;40.928;14.480;2023-03-15T15:35:52;0.75;;;0.45;;
63688;SDS011;54895;40.928;14.480;2023-03-15T15:38:22;0.68;;;0.22;;
63688;SDS011;54895;40.928;14.480;2023-03-15T15:40:51;2.17;;;0.30;;
63688;SDS011;54895;40.928;14.480;2023-03-15T15:43:17;2.72;;;0.50;;
63688;SDS011;54895;40.928;14.480;2023-03-15T15:45:44;0.40;;;0.30;;
63688;SDS011;54895;40.928;14.480;2023-03-15T15:48:10;0.28;;;0.25;;
63688;SDS011;54895;40.928;14.480;2023-03-15T15:50:37;0.38;;;0.30;;
63688;SDS011;54895;40.928;14.480;2023-03-15T15:53:04;1.20;;;0.45;;
63688;SDS011;54895;40.928;14.480;2023-03-15T15:55:33;0.50;;;0.50;;
63688;SDS011;54895;40.928;14.480;2023-03-15T15:58:02;0.50;;;0.35;;
63688;SDS011;54895;40.928;14.480;2023-03-15T16:00:30;0.45;;;0.40;;
63688;SDS011;54895;40.928;14.480;2023-03-15T16:02:56;2.15;;;0.75;;
63688;SDS011;54895;40.928;14.480;2023-03-15T16:05:24;0.45;;;0.40;;
63688;SDS011;54895;40.928;14.480;2023-03-15T16:07:52;0.85;;;0.60;;
63688;SDS011;54895;40.928;14.480;2023-03-15T16:10:23;0.77;;;0.50;;
63688;SDS011;54895;40.928;14.480;2023-03-15T16:12:52;1.00;;;0.60;;
63688;SDS011;54895;40.928;14.480;2023-03-15T16:15:20;1.15;;;0.40;;
63688;SDS011;54895;40.928;14.480;2023-03-15T16:17:47;1.27;;;0.52;;
63688;SDS011;54895;40.928;14.480;2023-03-15T16:20:15;1.77;;;0.50;;
63688;SDS011;54895;40.928;14.480;2023-03-15T16:22:45;0.52;;;0.47;;
63688;SDS011;54895;40.928;14.480;2023-03-15T16:25:21;1.95;;;0.65;;
63688;SDS011;54895;40.928;14.480;2023-03-15T16:27:51;0.50;;;0.40;;
63688;SDS011;54895;40.928;14.480;2023-03-15T16:30:23;2.65;;;0.95;;
63688;SDS011;54895;40.928;14.480;2023-03-15T16:32:51;1.20;;;0.60;;
63688;SDS011;54895;40.928;14.480;2023-03-15T16:35:21;1.45;;;0.70;;
63688;SDS011;54895;40.928;14.480;2023-03-15T16:37:56;0.85;;;0.45;;
63688;SDS011;54895;40.928;14.480;2023-03-15T16:40:24;0.40;;;0.40;;
63688;SDS011;54895;40.928;14.480;2023-03-15T16:42:52;2.03;;;1.23;;
63688;SDS011;54895;40.928;14.480;2023-03-15T16:45:19;2.58;;;0.60;;
63688;SDS011;54895;40.928;14.480;2023-03-15T16:51:29;2.88;;;0.65;;
63688;SDS011;54895;40.928;14.480;2023-03-15T16:53:56;1.25;;;0.70;;
63688;SDS011;54895;40.928;14.480;2023-03-15T16:56:23;3.40;;;0.77;;
63688;SDS011;54895;40.928;14.480;2023-03-15T16:58:58;1.08;;;0.75;;
63688;SDS011;54895;40.928;14.480;2023-03-15T17:01:24;0.52;;;0.40;;
63688;SDS011;54895;40.928;14.480;2023-03-15T17:03:51;2.80;;;0.63;;
63688;SDS011;54895;40.928;14.480;2023-03-15T17:06:19;3.85;;;0.65;;
63688;SDS011;54895;40.928;14.480;2023-03-15T17:08:48;2.38;;;0.82;;
63688;SDS011;54895;40.928;14.480;2023-03-15T17:11:16;3.00;;;1.10;;
63688;SDS011;54895;40.928;14.480;2023-03-15T17:13:43;4.10;;;0.70;;
63688;SDS011;54895;40.928;14.480;2023-03-15T17:16:10;1.88;;;0.63;;